GET weather

Geraldton Airport
Geraldton, Western Australia, Australia

Public forecast

Using degrees Celsius for public forecast. Weather courtesy of forecast.io.

METAR (pilot weather report)

Retrieved 2019/04/24 10:00 UTC (7 minutes ago):

YGEL 241000Z AUTO 18011KT 9999 // NCD 23/16 Q1019

TAF (pilot weather forecast)

Forecast is more than 12 hours old.

Retrieved 2019/04/23 00:00 UTC (1 day ago):

TAF YGEL 232244Z 2400/2418 09016KT CAVOK FM240400 12012KT CAVOK